Time;durP1;ratioP1;P1;durP2;ratioP2;P2;SDS_P1;SDS_P2;PMS_P1;PMS_P2;Temp;Humidity;BMP_temperature;BMP_pressure;BME280_temperature;BME280_humidity;BME280_pressure;Samples;Min_cycle;Max_cycle;Signal;HPM_P1;HPM_P2
2022/12/17 13:06:38;;;;;;;76.38;31.58;;;;;;;;;;5095390;28;20086;-74
2022/12/17 13:09:06;;;;;;;71.85;31.73;;;;;;;;;;5103079;28;20048;-75
2022/12/17 13:11:38;;;;;;;71.50;30.38;;;;;;;;;;5093954;28;20070;-76
2022/12/17 13:14:11;;;;;;;67.90;32.65;;;;;;;;;;5093844;28;20083;-76
2022/12/17 13:16:51;;;;;;;69.75;31.15;;;1.80;99.90;;;;;;5111102;28;20438;-76
2022/12/17 13:19:20;;;;;;;73.68;30.77;;;;;;;;;;5110756;28;20044;-76
2022/12/17 13:21:46;;;;;;;71.50;30.98;;;;;;;;;;5110571;28;20107;-74
2022/12/17 13:24:25;;;;;;;71.22;31.40;;;1.70;99.90;;;;;;5113812;28;20043;-75
2022/12/17 13:26:51;;;;;;;75.50;31.17;;;1.60;99.90;;;;;;5116221;28;20057;-75
2022/12/17 13:29:17;;;;;;;68.78;29.90;;;;;;;;;;5115629;27;20047;-75
2022/12/17 13:31:55;;;;;;;75.25;32.72;;;1.40;99.90;;;;;;5114784;28;20050;-76
2022/12/17 13:34:32;;;;;;;70.90;32.53;;;1.40;99.90;;;;;;5114856;28;20124;-76
2022/12/17 13:36:58;;;;;;;81.05;34.22;;;;;;;;;;5114572;28;20055;-72
2022/12/17 13:39:35;;;;;;;80.15;32.70;;;;;;;;;;5116058;28;20043;-76
2022/12/17 13:42:02;;;;;;;70.57;31.73;;;;;;;;;;5114688;28;20062;-74
2022/12/17 13:44:42;;;;;;;;;;;1.30;99.90;;;;;;5116169;28;20132;-75
2022/12/17 13:47:22;;;;;;;76.10;32.65;;;;;;;;;;5114706;28;19928;-74
2022/12/17 13:49:53;;;;;;;81.05;31.55;;;;;;;;;;5114311;28;20059;-75
2022/12/17 13:52:20;;;;;;;90.47;35.65;;;;;;;;;;5114404;28;20468;-76
2022/12/17 13:54:46;;;;;;;83.88;33.17;;;;;;;;;;5115586;28;20047;-74
2022/12/17 13:57:14;;;;;;;78.50;36.15;;;;;;;;;;5114606;28;20043;-75
2022/12/17 13:59:40;;;;;;;79.40;33.78;;;;;;;;;;5114241;28;20553;-75
2022/12/17 14:02:25;;;;;;;87.30;36.25;;;1.40;99.90;;;;;;5114352;28;20054;-74
2022/12/17 14:04:52;;;;;;;86.25;36.67;;;;;;;;;;5114054;28;20091;-74
2022/12/17 14:07:19;;;;;;;92.88;35.25;;;;;;;;;;5113515;28;20051;-75
2022/12/17 14:09:45;;;;;;;;;;;;;;;;;;5113620;28;20050;-74
2022/12/17 14:12:21;;;;;;;86.60;36.75;;;;;;;;;;5115562;28;19920;-74
2022/12/17 14:14:50;;;;;;;94.18;37.50;;;;;;;;;;5114350;28;20462;-74
2022/12/17 14:17:18;;;;;;;92.30;37.28;;;0.50;99.90;;;;;;5097520;28;20051;-74
2022/12/17 14:19:44;;;;;;;82.25;35.78;;;;;;;;;;5113921;28;20048;-74
2022/12/17 14:22:26;;;;;;;91.20;35.58;;;0.50;99.90;;;;;;5114224;28;20460;-72
2022/12/17 14:24:52;;;;;;;91.20;36.72;;;;;;;;;;5115485;28;20110;-74
2022/12/17 14:27:22;;;;;;;87.57;37.45;;;;;;;;;;5114131;28;20166;-74
2022/12/17 14:29:48;;;;;;;90.78;35.83;;;;;;;;;;5114397;28;20074;-74
2022/12/17 14:32:32;;;;;;;94.53;36.78;;;;;;;;;;5115222;28;20035;-74
2022/12/17 14:34:58;;;;;;;106.28;36.83;;;;;;;;;;5114537;28;20051;-74
2022/12/17 14:37:25;;;;;;;94.28;37.97;;;;;;;;;;5113851;28;20369;-74
2022/12/17 14:40:00;;;;;;;99.32;40.17;;;0.50;99.90;;;;;;5113884;28;20043;-74
2022/12/17 14:42:31;;;;;;;93.38;36.47;;;;;;;;;;5115200;28;20089;-74
2022/12/17 14:44:57;;;;;;;100.57;39.60;;;;;;;;;;5113786;28;20043;-72
2022/12/17 14:47:24;;;;;;;103.95;42.17;;;;;;;;;;5115034;28;20100;-73
2022/12/17 14:49:55;;;;;;;106.90;38.22;;;;;;;;;;5113647;28;20479;-73
2022/12/17 14:52:30;;;;;;;103.05;40.35;;;;;;;;;;5115136;28;20046;-73
2022/12/17 14:54:56;;;;;;;97.45;39.53;;;;;;;;;;5114929;28;20043;-73
2022/12/17 14:57:22;;;;;;;101.60;39.15;;;;;;;;;;5113481;28;20043;-72
2022/12/17 14:59:51;;;;;;;96.97;38.35;;;;;;;;;;5113725;28;20059;-71
2022/12/17 15:02:22;;;;;;;101.80;40.33;;;;;;;;;;5103159;28;20043;-73
2022/12/17 15:04:49;;;;;;;109.28;40.20;;;;;;;;;;5110414;28;20051;-71
2022/12/17 15:07:17;;;;;;;98.90;39.13;;;;;;;;;;5102603;28;20055;-73
2022/12/17 15:09:43;;;;;;;98.28;41.00;;;;;;;;;;5113975;28;20086;-73
2022/12/17 15:12:09;;;;;;;104.40;43.03;;;;;;;;;;5113961;28;20096;-73
2022/12/17 15:14:35;;;;;;;105.25;40.15;;;;;;;;;;5113057;28;20513;-73
2022/12/17 15:17:01;;;;;;;105.78;41.00;;;;;;;;;;5113621;28;20044;-75
2022/12/17 15:19:27;;;;;;;107.60;41.40;;;;;;;;;;5112939;28;20054;-73
2022/12/17 15:21:53;;;;;;;99.68;40.63;;;;;;;;;;5095741;28;20051;-73
2022/12/17 15:24:20;;;;;;;101.65;40.53;;;;;;;;;;5112742;28;20043;-73
2022/12/17 15:26:46;;;;;;;104.65;39.95;;;;;;;;;;5113638;28;20513;-72
2022/12/17 15:29:13;;;;;;;108.75;40.05;;;;;;;;;;5113701;28;20050;-74
2022/12/17 15:31:39;;;;;;;118.95;44.70;;;;;;;;;;5095246;28;20040;-73
2022/12/17 15:34:05;;;;;;;122.57;41.13;;;-0.20;99.90;;;;;;5113866;28;20043;-73
2022/12/17 15:36:31;;;;;;;110.15;42.28;;;;;;;;;;5113663;28;20100;-74
2022/12/17 15:38:58;;;;;;;108.65;40.47;;;;;;;;;;5112252;28;20101;-73
2022/12/17 15:44:09;;;;;;;109.93;41.75;;;;;;;;;;5113579;28;20067;-74
2022/12/17 15:46:35;;;;;;;115.28;45.13;;;;;;;;;;5111055;28;20150;-74
2022/12/17 15:49:02;;;;;;;112.72;41.17;;;;;;;;;;5113405;28;20850;-74
2022/12/17 15:51:28;;;;;;;119.18;43.03;;;;;;;;;;5111647;28;20101;-75
2022/12/17 15:53:54;;;;;;;108.15;39.30;;;;;;;;;;5111173;28;20054;-74
2022/12/17 15:56:27;;;;;;;112.90;40.10;;;;;;;;;;5112363;28;20043;-75
2022/12/17 15:58:56;;;;;;;109.60;41.42;;;;;;;;;;5103047;28;20058;-74
2022/12/17 16:01:22;;;;;;;115.30;41.63;;;;;;;;;;5092104;28;20044;-74
2022/12/17 16:03:48;;;;;;;113.03;41.65;;;;;;;;;;5097516;28;20104;-74
2022/12/17 16:06:15;;;;;;;106.03;40.53;;;;;;;;;;5111194;28;20089;-75
2022/12/17 16:08:41;;;;;;;107.75;42.00;;;;;;;;;;5112694;28;20122;-73
2022/12/17 16:11:08;;;;;;;114.85;41.13;;;;;;;;;;5112838;28;20087;-76
2022/12/17 16:13:35;;;;;;;116.15;41.45;;;;;;;;;;5091759;28;20040;-73
2022/12/17 16:16:01;;;;;;;123.45;43.17;;;;;;;;;;5112068;28;20431;-73
2022/12/17 16:18:27;;;;;;;125.45;41.28;;;;;;;;;;5111372;28;20051;-74
2022/12/17 16:20:53;;;;;;;117.30;41.22;;;;;;;;;;5112634;28;20135;-74
2022/12/17 16:23:19;;;;;;;119.97;40.90;;;;;;;;;;5112527;28;20047;-74
2022/12/17 16:25:54;;;;;;;123.05;42.40;;;;;;;;;;5093907;28;20054;-73
2022/12/17 16:28:20;;;;;;;117.22;41.72;;;;;;;;;;5108360;28;20093;-74
2022/12/17 16:30:56;;;;;;;124.90;42.30;;;;;;;;;;5111882;28;20488;-75
2022/12/17 16:33:23;;;;;;;;;;;;;;;;;;5111871;28;20483;-74
2022/12/17 16:35:50;;;;;;;113.95;41.03;;;;;;;;;;5112020;28;19924;-74
2022/12/17 16:38:16;;;;;;;106.40;38.40;;;;;;;;;;5111847;28;20104;-74
2022/12/17 16:40:42;;;;;;;123.05;42.45;;;;;;;;;;5112844;28;20059;-74
2022/12/17 16:43:09;;;;;;;118.85;40.17;;;;;;;;;;5111653;28;20111;-74
2022/12/17 16:45:35;;;;;;;;;;;;;;;;;;5111641;28;20056;-74
2022/12/17 16:48:01;;;;;;;111.25;38.92;;;;;;;;;;5112819;28;20363;-74
2022/12/17 16:50:29;;;;;;;115.20;41.92;;;;;;;;;;5112206;28;20104;-74
2022/12/17 16:52:55;;;;;;;119.95;39.67;;;;;;;;;;5112678;28;20051;-75
2022/12/17 16:55:21;;;;;;;115.57;40.17;;;;;;;;;;5112639;28;20047;-70
2022/12/17 16:57:47;;;;;;;124.07;39.05;;;;;;;;;;5112481;28;20052;-74
2022/12/17 17:00:13;;;;;;;109.25;40.08;;;;;;;;;;5110838;28;20111;-73
2022/12/17 17:02:39;;;;;;;112.43;40.42;;;;;;;;;;5111432;28;20047;-73
2022/12/17 17:05:05;;;;;;;115.65;40.97;;;;;;;;;;5111177;28;20043;-73
2022/12/17 17:07:31;;;;;;;125.53;41.92;;;;;;;;;;5111253;28;20052;-74
2022/12/17 17:09:57;;;;;;;111.78;39.63;;;;;;;;;;5112488;28;20115;-72
2022/12/17 17:12:25;;;;;;;113.30;39.05;;;;;;;;;;5110857;28;20118;-73
2022/12/17 17:14:51;;;;;;;116.30;38.38;;;;;;;;;;5110540;28;20055;-74
2022/12/17 17:17:17;;;;;;;102.18;36.95;;;;;;;;;;5112358;28;20048;-73
2022/12/17 17:19:43;;;;;;;115.43;38.55;;;;;;;;;;5112347;28;20058;-74
2022/12/17 17:22:09;;;;;;;122.13;39.28;;;;;;;;;;5112422;28;20040;-73
2022/12/17 17:24:35;;;;;;;108.85;37.70;;;;;;;;;;5112380;28;20054;-72
2022/12/17 17:27:01;;;;;;;111.63;37.45;;;;;;;;;;5111432;28;20130;-74
2022/12/17 17:29:28;;;;;;;102.93;35.83;;;;;;;;;;5110900;28;20047;-74
2022/12/17 17:31:54;;;;;;;108.18;36.78;;;;;;;;;;5112347;28;20048;-72
2022/12/17 17:34:20;;;;;;;108.78;37.05;;;;;;;;;;5112326;28;20391;-72
2022/12/17 17:36:46;;;;;;;115.57;38.55;;;;;;;;;;5110824;28;20044;-72
2022/12/17 17:39:13;;;;;;;117.15;39.10;;;;;;;;;;5112351;28;20055;-72
2022/12/17 17:41:39;;;;;;;114.85;38.72;;;;;;;;;;5110649;28;20130;-72
2022/12/17 17:44:11;;;;;;;110.68;37.63;;;;;;;;;;5111508;28;20052;-72
2022/12/17 17:46:37;;;;;;;119.32;39.45;;;;;;;;;;5112219;28;20056;-74
2022/12/17 17:49:05;;;;;;;108.07;35.50;;;;;;;;;;5112041;28;20058;-74
2022/12/17 17:51:32;;;;;;;110.68;38.42;;;;;;;;;;5112005;28;20104;-73
2022/12/17 17:53:59;;;;;;;110.82;37.20;;;;;;;;;;5111668;28;20570;-73
2022/12/17 17:56:33;;;;;;;105.38;36.72;;;-1.70;99.90;;;;;;5093305;28;20051;-73
2022/12/17 17:59:01;;;;;;;111.28;36.13;;;;;;;;;;5112044;28;20507;-73
2022/12/17 18:01:31;;;;;;;116.32;37.25;;;;;;;;;;5111691;28;20043;-72
2022/12/17 18:03:58;;;;;;;115.13;36.45;;;;;;;;;;5111895;28;20046;-73
2022/12/17 18:06:24;;;;;;;119.95;41.45;;;;;;;;;;5110258;28;20063;-72
2022/12/17 18:08:50;;;;;;;121.63;38.17;;;;;;;;;;5111821;28;20154;-74
2022/12/17 18:11:17;;;;;;;114.10;41.00;;;;;;;;;;5114061;28;20048;-74
2022/12/17 18:13:56;;;;;;;105.53;37.45;;;;;;;;;;5115667;28;20051;-72
2022/12/17 18:16:31;;;;;;;113.95;36.50;;;;;;;;;;5115768;28;20040;-74
2022/12/17 18:19:01;;;;;;;107.47;36.17;;;;;;;;;;5115491;28;20054;-73
2022/12/17 18:21:28;;;;;;;105.15;34.40;;;;;;;;;;5109186;28;20051;-73
2022/12/17 18:24:00;;;;;;;110.45;36.17;;;;;;;;;;5109090;28;20381;-76
2022/12/17 18:26:28;;;;;;;122.22;38.00;;;;;;;;;;5097269;28;20050;-74
2022/12/17 18:28:55;;;;;;;107.82;36.38;;;;;;;;;;5114538;28;20051;-72
2022/12/17 18:31:24;;;;;;;110.57;37.05;;;-1.20;99.90;;;;;;5113480;28;20397;-74
2022/12/17 18:33:52;;;;;;;110.40;37.47;;;;;;;;;;5113392;28;20040;-74
2022/12/17 18:36:23;;;;;;;113.65;37.53;;;;;;;;;;5099296;28;20052;-75
2022/12/17 18:38:59;;;;;;;108.47;35.25;;;;;;;;;;5114868;28;20062;-74
2022/12/17 18:44:11;;;;;;;103.20;35.90;;;;;;;;;;5114806;28;20057;-74
2022/12/17 18:46:37;;;;;;;115.63;36.25;;;;;;;;;;5108395;28;20051;-74
2022/12/17 18:49:05;;;;;;;103.38;35.03;;;;;;;;;;5108812;28;20071;-76
2022/12/17 18:51:31;;;;;;;101.78;33.78;;;;;;;;;;5095202;28;20044;-68
2022/12/17 18:53:59;;;;;;;101.85;35.30;;;;;;;;;;5113659;28;20058;-68
2022/12/17 18:56:25;;;;;;;109.82;35.28;;;;;;;;;;5114318;28;20043;-68
2022/12/17 18:58:52;;;;;;;97.70;34.40;;;;;;;;;;5103026;28;20052;-69
2022/12/17 19:01:24;;;;;;;100.53;33.70;;;-1.70;99.90;;;;;;5105918;28;20126;-73
2022/12/17 19:03:50;;;;;;;105.30;36.05;;;;;;;;;;5111033;28;20044;-80
2022/12/17 19:06:17;;;;;;;115.13;34.85;;;;;;;;;;5092267;28;20074;-73
2022/12/17 19:08:43;;;;;;;115.43;35.05;;;;;;;;;;5112943;28;20051;-72
2022/12/17 19:11:10;;;;;;;103.72;35.40;;;;;;;;;;5103077;28;20051;-74
2022/12/17 19:13:36;;;;;;;115.80;34.95;;;;;;;;;;5112146;28;20043;-70
2022/12/17 19:16:06;;;;;;;119.45;37.47;;;;;;;;;;5112866;28;20048;-72
2022/12/17 19:18:33;;;;;;;101.90;34.67;;;;;;;;;;5103865;28;20086;-66
2022/12/17 19:20:59;;;;;;;106.22;37.08;;;;;;;;;;5092700;28;20449;-73
2022/12/17 19:23:25;;;;;;;96.32;33.60;;;;;;;;;;5093242;28;20115;-72
2022/12/17 19:25:51;;;;;;;109.80;35.35;;;;;;;;;;5094159;28;20051;-71
2022/12/17 19:28:18;;;;;;;104.40;33.53;;;;;;;;;;5093630;28;20484;-71
2022/12/17 19:30:44;;;;;;;;;;;;;;;;;;5094377;28;20078;-73
2022/12/17 19:33:10;;;;;;;104.63;33.58;;;;;;;;;;5093743;28;20364;-72
2022/12/17 19:35:36;;;;;;;93.85;31.48;;;;;;;;;;5093791;28;20404;-71
2022/12/17 19:38:02;;;;;;;106.32;34.35;;;;;;;;;;5093114;28;20050;-72
2022/12/17 19:40:28;;;;;;;107.35;34.20;;;;;;;;;;5093389;28;20052;-71
2022/12/17 19:42:55;;;;;;;103.07;34.40;;;;;;;;;;5093617;28;20055;-71
2022/12/17 19:45:21;;;;;;;107.53;32.95;;;;;;;;;;5093584;28;20048;-72
2022/12/17 19:47:47;;;;;;;104.40;33.10;;;-1.50;99.90;;;;;;5093575;28;20040;-72
2022/12/17 19:50:13;;;;;;;100.60;32.85;;;;;;;;;;5093418;28;20050;-70
2022/12/17 19:52:39;;;;;;;101.05;32.63;;;;;;;;;;5092685;28;20048;-72
2022/12/17 19:55:05;;;;;;;107.07;34.72;;;;;;;;;;5093438;28;20052;-71
2022/12/17 19:57:33;;;;;;;102.63;32.78;;;-1.80;99.90;;;;;;5093265;28;20575;-70
2022/12/17 19:59:59;;;;;;;99.82;32.60;;;;;;;;;;5093225;28;20052;-72
2022/12/17 20:02:25;;;;;;;108.07;34.50;;;;;;;;;;5093223;28;20058;-71
2022/12/17 20:04:51;;;;;;;105.32;34.33;;;;;;;;;;5093085;28;20094;-71
2022/12/17 20:07:17;;;;;;;102.90;35.92;;;;;;;;;;5092457;28;20048;-71
2022/12/17 20:09:44;;;;;;;107.78;33.42;;;;;;;;;;5093072;28;20044;-71
2022/12/17 20:12:10;;;;;;;100.78;34.25;;;;;;;;;;5092703;28;20131;-71
2022/12/17 20:14:36;;;;;;;;;;;;;;;;;;5093470;28;20048;-71
2022/12/17 20:17:03;;;;;;;105.95;34.20;;;;;;;;;;5092916;28;19930;-71
2022/12/17 20:19:31;;;;;;;115.13;34.50;;;;;;;;;;5092897;28;20215;-72
2022/12/17 20:21:58;;;;;;;105.15;33.15;;;;;;;;;;5091243;28;20056;-70
2022/12/17 20:24:24;;;;;;;105.90;31.42;;;;;;;;;;5092718;28;20048;-71
2022/12/17 20:26:51;;;;;;;119.93;36.33;;;;;;;;;;5092720;28;20052;-71
2022/12/17 20:29:18;;;;;;;116.03;34.63;;;;;;;;;;5092703;28;20048;-72
2022/12/17 20:31:44;;;;;;;;;;;;;;;;;;5092629;28;20086;-70
2022/12/17 20:34:12;;;;;;;116.43;36.40;;;;;;;;;;5092498;28;19970;-70
2022/12/17 20:36:39;;;;;;;114.50;36.15;;;;;;;;;;5091939;28;20416;-71
2022/12/17 20:39:05;;;;;;;110.28;32.80;;;;;;;;;;5091260;28;20083;-70
2022/12/17 20:41:31;;;;;;;121.43;36.20;;;;;;;;;;5092460;28;20063;-70
2022/12/17 20:43:57;;;;;;;;;;;;;;;;;;5106959;28;20043;-69
2022/12/17 20:46:24;;;;;;;121.85;36.33;;;;;;;;;;5112245;28;19927;-70
2022/12/17 20:48:51;;;;;;;114.20;34.08;;;;;;;;;;5111227;28;20051;-69
2022/12/17 20:51:19;;;;;;;119.38;34.90;;;;;;;;;;5110799;28;20047;-69
2022/12/17 20:53:46;;;;;;;126.03;36.28;;;;;;;;;;5112462;28;20187;-70
2022/12/17 20:56:13;;;;;;;102.53;33.25;;;;;;;;;;5112849;28;20046;-69
2022/12/17 20:58:40;;;;;;;109.47;34.35;;;;;;;;;;5112541;28;20051;-69
2022/12/17 21:01:20;;;;;;;122.82;36.50;;;;;;;;;;5112474;28;20084;-69
2022/12/17 21:03:48;;;;;;;120.18;36.33;;;;;;;;;;5112549;28;20086;-69
2022/12/17 21:06:14;;;;;;;129.30;38.72;;;;;;;;;;5111861;28;20051;-69
2022/12/17 21:08:40;;;;;;;126.35;35.08;;;;;;;;;;5111374;28;20096;-70
2022/12/17 21:11:07;;;;;;;111.25;34.75;;;;;;;;;;5112382;28;20088;-69
2022/12/17 21:13:34;;;;;;;103.10;32.25;;;;;;;;;;5112342;28;20093;-69
2022/12/17 21:16:02;;;;;;;111.68;34.25;;;;;;;;;;5112319;28;20047;-72
2022/12/17 21:18:28;;;;;;;113.03;36.13;;;;;;;;;;5112421;28;20123;-68
2022/12/17 21:20:57;;;;;;;113.80;35.42;;;;;;;;;;5112091;28;20062;-69
2022/12/17 21:23:26;;;;;;;107.72;35.28;;;;;;;;;;5112393;28;20048;-69
2022/12/17 21:26:12;;;;;;;112.22;34.75;;;;;;;;;;5112149;28;20048;-69
2022/12/17 21:28:40;;;;;;;111.97;34.88;;;;;;;;;;5112298;28;20543;-68
2022/12/17 21:31:06;;;;;;;115.80;34.17;;;;;;;;;;5112169;28;20122;-69
2022/12/17 21:33:32;;;;;;;110.82;36.38;;;;;;;;;;5110827;28;20040;-69
2022/12/17 21:36:02;;;;;;;116.03;35.28;;;;;;;;;;5111541;28;20047;-69
2022/12/17 21:38:29;;;;;;;106.50;35.08;;;;;;;;;;5111789;28;20500;-68
2022/12/17 21:40:55;;;;;;;106.28;35.50;;;;;;;;;;5110545;28;20055;-68
2022/12/17 21:43:22;;;;;;;106.20;35.85;;;;;;;;;;5110960;28;20066;-69
2022/12/17 21:45:48;;;;;;;;;;;-2.50;99.90;;;;;;5116440;28;20048;-68
2022/12/17 21:48:14;;;;;;;113.00;36.45;;;;;;;;;;5093334;28;19988;-69
2022/12/17 21:50:41;;;;;;;100.35;34.65;;;;;;;;;;5093849;28;20442;-68
2022/12/17 21:53:07;;;;;;;123.15;38.85;;;;;;;;;;5098506;28;20605;-69
2022/12/17 21:55:33;;;;;;;;;;;-2.40;99.90;;;;;;5115941;28;20043;-67
2022/12/17 21:57:59;;;;;;;116.05;36.95;;;;;;;;;;5115935;28;19942;-68
2022/12/17 22:00:25;;;;;;;121.95;38.28;;;;;;;;;;5115950;28;20047;-67
2022/12/17 22:02:52;;;;;;;114.53;37.08;;;;;;;;;;5114533;28;20083;-67
2022/12/17 22:05:18;;;;;;;;;;;;;;;;;;5115370;28;20483;-69
2022/12/17 22:07:44;;;;;;;109.55;39.58;;;;;;;;;;5115453;28;19920;-67
2022/12/17 22:10:10;;;;;;;113.25;39.03;;;;;;;;;;5115342;27;20492;-67
2022/12/17 22:15:21;;;;;;;115.28;38.95;;;;;;;;;;5115530;28;20435;-66
2022/12/17 22:17:47;;;;;;;123.70;40.75;;;;;;;;;;5114272;28;20087;-67
2022/12/17 22:20:15;;;;;;;111.57;40.47;;;;;;;;;;5115221;28;20497;-67
2022/12/17 22:22:41;;;;;;;115.50;39.05;;;;;;;;;;5115429;28;20230;-69
2022/12/17 22:25:08;;;;;;;105.72;36.15;;;;;;;;;;5115394;28;20039;-67
2022/12/17 22:27:34;;;;;;;;;;;;;;;;;;5115895;28;20570;-68
2022/12/17 22:33:01;;;;;;;115.57;36.92;;;;;;;;;;5114967;28;20063;-68
2022/12/17 22:35:27;;;;;;;113.40;38.75;;;;;;;;;;5115255;28;20063;-67
2022/12/17 22:37:53;;;;;;;109.60;36.85;;;;;;;;;;5115150;28;20392;-67
2022/12/17 22:40:21;;;;;;;111.88;38.20;;;;;;;;;;5096646;28;20067;-66
2022/12/17 22:45:32;;;;;;;107.45;36.60;;;;;;;;;;5115038;28;20051;-67
2022/12/17 22:47:58;;;;;;;115.93;36.22;;;;;;;;;;5114715;28;20054;-66
2022/12/17 22:50:24;;;;;;;115.88;39.13;;;-2.50;99.90;;;;;;5114910;28;20054;-66
2022/12/17 22:52:50;;;;;;;110.75;39.55;;;;;;;;;;5115052;28;20047;-66
2022/12/17 22:55:16;;;;;;;115.05;38.42;;;;;;;;;;5114456;28;20047;-67
2022/12/17 22:57:42;;;;;;;113.63;38.80;;;;;;;;;;5115640;28;20100;-66
2022/12/17 23:00:20;;;;;;;109.82;37.80;;;;;;;;;;5115189;28;20043;-66
2022/12/17 23:02:46;;;;;;;100.20;37.53;;;;;;;;;;5114512;28;20051;-68
2022/12/17 23:05:13;;;;;;;112.05;36.45;;;;;;;;;;5114752;28;20367;-66
2022/12/17 23:07:39;;;;;;;109.53;36.83;;;;;;;;;;5114601;28;20048;-66
2022/12/17 23:10:05;;;;;;;122.63;40.20;;;;;;;;;;5114659;28;20047;-65
2022/12/17 23:12:50;;;;;;;107.63;36.10;;;;;;;;;;5114703;28;20101;-70
2022/12/17 23:15:36;;;;;;;107.32;36.50;;;;;;;;;;5114792;28;20395;-66
2022/12/17 23:18:04;;;;;;;111.45;37.50;;;;;;;;;;5114488;27;20051;-68
2022/12/17 23:20:31;;;;;;;107.03;36.40;;;;;;;;;;5114414;28;20067;-66
2022/12/17 23:22:57;;;;;;;110.43;37.63;;;;;;;;;;5114345;28;20126;-68
2022/12/17 23:25:23;;;;;;;116.65;38.40;;;;;;;;;;5114342;28;20093;-68
2022/12/17 23:27:49;;;;;;;120.07;37.92;;;;;;;;;;5114211;28;20111;-65
2022/12/17 23:30:16;;;;;;;114.43;36.90;;;;;;;;;;5113914;28;20054;-65
2022/12/17 23:32:42;;;;;;;;;;;;;;;;;;5114459;27;20044;-67
2022/12/17 23:35:08;;;;;;;111.22;39.25;;;;;;;;;;5114066;28;19930;-68
2022/12/17 23:37:35;;;;;;;106.15;36.45;;;;;;;;;;5112425;28;20058;-65
2022/12/17 23:40:01;;;;;;;115.45;37.08;;;;;;;;;;5113804;28;20040;-65
2022/12/17 23:42:27;;;;;;;115.47;37.25;;;;;;;;;;5113914;28;20070;-65
2022/12/17 23:44:53;;;;;;;106.30;34.47;;;;;;;;;;5113641;28;20063;-68
2022/12/17 23:47:19;;;;;;;105.97;35.38;;;-2.30;99.90;;;;;;5113816;28;20163;-66
2022/12/17 23:49:45;;;;;;;122.33;38.63;;;;;;;;;;5113815;28;20061;-65
2022/12/17 23:52:11;;;;;;;111.80;36.13;;;;;;;;;;5113671;28;20075;-65
2022/12/17 23:54:37;;;;;;;116.90;37.95;;;;;;;;;;5129840;27;20047;-67
2022/12/17 23:57:03;;;;;;;115.28;35.83;;;;;;;;;;5113651;27;20055;-65
2022/12/17 23:59:29;;;;;;;119.03;37.05;;;;;;;;;;5113329;28;20086;-65
